sensor_id;sensor_type;location;lat;lon;timestamp;pressure;altitude;pressure_sealevel;temperature;humidity
57048;BME280;42934;54.294;18.598;2022-09-01T00:00:12;101488.06;;;13.73;74.02
57048;BME280;42934;54.294;18.598;2022-09-01T00:03:01;101485.47;;;13.71;74.15
57048;BME280;42934;54.294;18.598;2022-09-01T00:05:31;101487.25;;;13.71;73.86
57048;BME280;42934;54.294;18.598;2022-09-01T00:08:01;101487.28;;;13.69;73.80
57048;BME280;42934;54.294;18.598;2022-09-01T00:10:31;101484.88;;;13.61;74.14
57048;BME280;42934;54.294;18.598;2022-09-01T00:13:02;101477.03;;;13.60;73.86
57048;BME280;42934;54.294;18.598;2022-09-01T00:15:35;101480.63;;;13.57;74.18
57048;BME280;42934;54.294;18.598;2022-09-01T00:18:05;101483.25;;;13.59;73.82
57048;BME280;42934;54.294;18.598;2022-09-01T00:20:34;101477.25;;;13.54;74.39
57048;BME280;42934;54.294;18.598;2022-09-01T00:23:04;101484.28;;;13.53;74.07
57048;BME280;42934;54.294;18.598;2022-09-01T00:25:33;101481.75;;;13.50;73.86
57048;BME280;42934;54.294;18.598;2022-09-01T00:28:03;101470.41;;;13.47;74.41
57048;BME280;42934;54.294;18.598;2022-09-01T00:30:34;101476.56;;;13.47;74.10
57048;BME280;42934;54.294;18.598;2022-09-01T00:33:04;101473.16;;;13.44;74.51
57048;BME280;42934;54.294;18.598;2022-09-01T00:35:34;101475.84;;;13.42;74.41
57048;BME280;42934;54.294;18.598;2022-09-01T00:38:04;101481.41;;;13.33;74.90
57048;BME280;42934;54.294;18.598;2022-09-01T00:40:34;101476.94;;;13.35;74.59
57048;BME280;42934;54.294;18.598;2022-09-01T00:43:11;101475.25;;;13.32;74.56
57048;BME280;42934;54.294;18.598;2022-09-01T00:45:43;101481.59;;;13.27;74.93
57048;BME280;42934;54.294;18.598;2022-09-01T00:48:12;101488.69;;;13.23;75.28
57048;BME280;42934;54.294;18.598;2022-09-01T00:50:42;101491.22;;;13.28;74.77
57048;BME280;42934;54.294;18.598;2022-09-01T00:53:16;101495.59;;;13.29;74.79
57048;BME280;42934;54.294;18.598;2022-09-01T00:55:46;101493.88;;;13.28;74.98
57048;BME280;42934;54.294;18.598;2022-09-01T00:58:15;101503.47;;;13.30;74.73
57048;BME280;42934;54.294;18.598;2022-09-01T01:00:50;101506.91;;;13.32;74.36
57048;BME280;42934;54.294;18.598;2022-09-01T01:03:21;101502.50;;;13.33;74.54
57048;BME280;42934;54.294;18.598;2022-09-01T01:05:54;101501.59;;;13.34;74.73
57048;BME280;42934;54.294;18.598;2022-09-01T01:08:27;101503.28;;;13.36;74.99
57048;BME280;42934;54.294;18.598;2022-09-01T01:11:03;101509.31;;;13.40;75.03
57048;BME280;42934;54.294;18.598;2022-09-01T01:13:47;101511.03;;;13.41;75.28
57048;BME280;42934;54.294;18.598;2022-09-01T01:16:19;101500.38;;;13.44;75.19
57048;BME280;42934;54.294;18.598;2022-09-01T01:18:49;101506.34;;;13.51;74.95
57048;BME280;42934;54.294;18.598;2022-09-01T01:21:23;101500.16;;;13.52;75.45
57048;BME280;42934;54.294;18.598;2022-09-01T01:24:23;101488.56;;;13.57;75.50
57048;BME280;42934;54.294;18.598;2022-09-01T01:26:54;101488.56;;;13.57;75.90
57048;BME280;42934;54.294;18.598;2022-09-01T01:29:24;101483.13;;;13.62;75.79
57048;BME280;42934;54.294;18.598;2022-09-01T01:31:57;101482.25;;;13.61;75.96
57048;BME280;42934;54.294;18.598;2022-09-01T01:34:27;101482.22;;;13.63;75.83
57048;BME280;42934;54.294;18.598;2022-09-01T01:36:56;101480.59;;;13.59;76.52
57048;BME280;42934;54.294;18.598;2022-09-01T01:39:28;101481.56;;;13.56;76.74
57048;BME280;42934;54.294;18.598;2022-09-01T01:41:58;101474.44;;;13.58;76.79
57048;BME280;42934;54.294;18.598;2022-09-01T01:44:28;101477.06;;;13.58;76.69
57048;BME280;42934;54.294;18.598;2022-09-01T01:47:00;101486.66;;;13.61;76.20
57048;BME280;42934;54.294;18.598;2022-09-01T01:49:31;101467.25;;;13.63;75.93
57048;BME280;42934;54.294;18.598;2022-09-01T01:52:02;101466.28;;;13.66;75.83
57048;BME280;42934;54.294;18.598;2022-09-01T01:54:36;101465.31;;;13.69;75.72
57048;BME280;42934;54.294;18.598;2022-09-01T01:57:07;101464.38;;;13.71;75.28
57048;BME280;42934;54.294;18.598;2022-09-01T01:59:36;101464.25;;;13.74;75.24
57048;BME280;42934;54.294;18.598;2022-09-01T02:02:07;101461.44;;;13.79;74.85
57048;BME280;42934;54.294;18.598;2022-09-01T02:04:40;101456.97;;;13.82;74.72
57048;BME280;42934;54.294;18.598;2022-09-01T02:07:12;101455.00;;;13.88;74.35
57048;BME280;42934;54.294;18.598;2022-09-01T02:09:44;101465.56;;;13.88;74.55
57048;BME280;42934;54.294;18.598;2022-09-01T02:12:15;101462.81;;;13.91;74.25
57048;BME280;42934;54.294;18.598;2022-09-01T02:14:46;101458.41;;;13.91;74.16
57048;BME280;42934;54.294;18.598;2022-09-01T02:17:17;101456.69;;;13.90;74.17
57048;BME280;42934;54.294;18.598;2022-09-01T02:19:48;101454.13;;;13.89;74.11
57048;BME280;42934;54.294;18.598;2022-09-01T02:22:18;101458.47;;;13.90;74.00
57048;BME280;42934;54.294;18.598;2022-09-01T02:24:50;101449.59;;;13.92;74.19
57048;BME280;42934;54.294;18.598;2022-09-01T02:27:20;101451.28;;;13.93;73.92
57048;BME280;42934;54.294;18.598;2022-09-01T02:29:54;101446.09;;;13.92;73.77
57048;BME280;42934;54.294;18.598;2022-09-01T02:32:26;101447.84;;;13.91;73.68
57048;BME280;42934;54.294;18.598;2022-09-01T02:34:56;101447.81;;;13.93;73.66
57048;BME280;42934;54.294;18.598;2022-09-01T02:37:28;101453.72;;;13.99;73.43
57048;BME280;42934;54.294;18.598;2022-09-01T02:39:59;101448.50;;;13.98;73.28
57048;BME280;42934;54.294;18.598;2022-09-01T02:42:29;101442.19;;;14.02;73.38
57048;BME280;42934;54.294;18.598;2022-09-01T02:44:58;101449.28;;;14.01;73.47
57048;BME280;42934;54.294;18.598;2022-09-01T02:47:29;101437.88;;;13.99;73.62
57048;BME280;42934;54.294;18.598;2022-09-01T02:49:59;101448.56;;;13.96;74.05
57048;BME280;42934;54.294;18.598;2022-09-01T02:52:30;101444.22;;;13.94;74.29
57048;BME280;42934;54.294;18.598;2022-09-01T02:55:04;101446.84;;;13.95;73.93
57048;BME280;42934;54.294;18.598;2022-09-01T02:57:34;101442.75;;;13.85;74.21
57048;BME280;42934;54.294;18.598;2022-09-01T03:00:06;101444.50;;;13.86;74.48
57048;BME280;42934;54.294;18.598;2022-09-01T03:02:49;101434.00;;;13.84;74.64
57048;BME280;42934;54.294;18.598;2022-09-01T03:05:20;101441.19;;;13.79;74.68
57048;BME280;42934;54.294;18.598;2022-09-01T03:07:53;101437.81;;;13.76;74.95
57048;BME280;42934;54.294;18.598;2022-09-01T03:10:27;101438.56;;;13.79;74.69
57048;BME280;42934;54.294;18.598;2022-09-01T03:13:01;101437.69;;;13.79;74.95
57048;BME280;42934;54.294;18.598;2022-09-01T03:15:31;101444.72;;;13.80;74.74
57048;BME280;42934;54.294;18.598;2022-09-01T03:18:02;101448.22;;;13.80;74.73
57048;BME280;42934;54.294;18.598;2022-09-01T03:20:34;101447.25;;;13.83;74.65
57048;BME280;42934;54.294;18.598;2022-09-01T03:23:05;101449.03;;;13.82;74.50
57048;BME280;42934;54.294;18.598;2022-09-01T03:25:37;101445.41;;;13.85;74.50
57048;BME280;42934;54.294;18.598;2022-09-01T03:28:08;101445.47;;;13.83;74.58
57048;BME280;42934;54.294;18.598;2022-09-01T03:30:44;101442.75;;;13.85;74.62
57048;BME280;42934;54.294;18.598;2022-09-01T03:33:14;101436.53;;;13.88;74.33
57048;BME280;42934;54.294;18.598;2022-09-01T03:35:46;101447.84;;;13.91;74.21
57048;BME280;42934;54.294;18.598;2022-09-01T03:38:15;101440.09;;;13.86;74.42
57048;BME280;42934;54.294;18.598;2022-09-01T03:40:53;101449.69;;;13.89;74.74
57048;BME280;42934;54.294;18.598;2022-09-01T03:43:26;101438.28;;;13.89;74.73
57048;BME280;42934;54.294;18.598;2022-09-01T03:46:04;101444.34;;;13.91;74.70
57048;BME280;42934;54.294;18.598;2022-09-01T03:48:38;101440.81;;;13.92;74.76
57048;BME280;42934;54.294;18.598;2022-09-01T03:51:07;101438.97;;;13.94;74.59
57048;BME280;42934;54.294;18.598;2022-09-01T03:53:39;101438.00;;;13.96;74.66
57048;BME280;42934;54.294;18.598;2022-09-01T03:56:10;101437.03;;;13.99;74.68
57048;BME280;42934;54.294;18.598;2022-09-01T03:58:42;101435.22;;;14.01;74.67
57048;BME280;42934;54.294;18.598;2022-09-01T04:01:16;101439.56;;;14.02;74.57
57048;BME280;42934;54.294;18.598;2022-09-01T04:03:46;101444.00;;;14.01;74.60
57048;BME280;42934;54.294;18.598;2022-09-01T04:06:20;101444.00;;;14.01;74.65
57048;BME280;42934;54.294;18.598;2022-09-01T04:08:51;101438.63;;;14.03;74.57
57048;BME280;42934;54.294;18.598;2022-09-01T04:11:33;101446.63;;;14.01;74.75
57048;BME280;42934;54.294;18.598;2022-09-01T04:14:03;101448.44;;;13.99;75.24
57048;BME280;42934;54.294;18.598;2022-09-01T04:16:35;101444.09;;;13.98;75.21
57048;BME280;42934;54.294;18.598;2022-09-01T04:19:24;101439.75;;;13.97;75.41
57048;BME280;42934;54.294;18.598;2022-09-01T04:21:58;101435.25;;;13.99;75.42
57048;BME280;42934;54.294;18.598;2022-09-01T04:24:33;101441.34;;;14.01;74.97
57048;BME280;42934;54.294;18.598;2022-09-01T04:27:04;101437.97;;;13.98;75.49
57048;BME280;42934;54.294;18.598;2022-09-01T04:29:36;101448.41;;;14.01;75.34
57048;BME280;42934;54.294;18.598;2022-09-01T04:32:07;101443.16;;;13.99;75.59
57048;BME280;42934;54.294;18.598;2022-09-01T04:34:42;101447.47;;;14.02;75.50
57048;BME280;42934;54.294;18.598;2022-09-01T04:37:17;101437.66;;;14.05;75.51
57048;BME280;42934;54.294;18.598;2022-09-01T04:39:52;101445.50;;;14.08;75.32
57048;BME280;42934;54.294;18.598;2022-09-01T04:42:28;101447.16;;;14.11;75.26
57048;BME280;42934;54.294;18.598;2022-09-01T04:45:02;101447.06;;;14.14;75.14
57048;BME280;42934;54.294;18.598;2022-09-01T04:47:39;101442.91;;;14.07;75.51
57048;BME280;42934;54.294;18.598;2022-09-01T04:50:15;101442.91;;;14.07;75.63
57048;BME280;42934;54.294;18.598;2022-09-01T04:53:04;101444.47;;;14.13;75.65
57048;BME280;42934;54.294;18.598;2022-09-01T04:55:40;101445.44;;;14.10;75.92
57048;BME280;42934;54.294;18.598;2022-09-01T04:58:15;101447.03;;;14.16;75.56
57048;BME280;42934;54.294;18.598;2022-09-01T05:00:48;101445.97;;;14.20;75.76
57048;BME280;42934;54.294;18.598;2022-09-01T05:03:19;101446.72;;;14.23;75.61
57048;BME280;42934;54.294;18.598;2022-09-01T05:06:15;101450.16;;;14.27;75.47
57048;BME280;42934;54.294;18.598;2022-09-01T05:08:57;101454.47;;;14.29;75.23
57048;BME280;42934;54.294;18.598;2022-09-01T05:11:40;101450.19;;;14.25;75.64
57048;BME280;42934;54.294;18.598;2022-09-01T05:14:30;101444.69;;;14.31;75.22
57048;BME280;42934;54.294;18.598;2022-09-01T05:16:59;101449.22;;;14.28;75.55
57048;BME280;42934;54.294;18.598;2022-09-01T05:19:30;101446.47;;;14.31;75.59
57048;BME280;42934;54.294;18.598;2022-09-01T05:22:00;101455.09;;;14.36;75.21
57048;BME280;42934;54.294;18.598;2022-09-01T05:24:31;101454.13;;;14.39;75.25
57048;BME280;42934;54.294;18.598;2022-09-01T05:27:10;101450.53;;;14.41;75.31
57048;BME280;42934;54.294;18.598;2022-09-01T05:29:45;101451.31;;;14.43;75.30
57048;BME280;42934;54.294;18.598;2022-09-01T05:32:16;101456.50;;;14.46;75.12
57048;BME280;42934;54.294;18.598;2022-09-01T05:34:47;101459.97;;;14.47;75.16
57048;BME280;42934;54.294;18.598;2022-09-01T05:37:18;101459.88;;;14.50;74.89
57048;BME280;42934;54.294;18.598;2022-09-01T05:39:49;101460.69;;;14.53;74.83
57048;BME280;42934;54.294;18.598;2022-09-01T05:42:19;101458.72;;;14.59;74.66
57048;BME280;42934;54.294;18.598;2022-09-01T05:44:50;101451.56;;;14.62;74.42
57048;BME280;42934;54.294;18.598;2022-09-01T05:47:20;101455.06;;;14.63;74.44
57048;BME280;42934;54.294;18.598;2022-09-01T05:49:52;101457.59;;;14.66;74.35
57048;BME280;42934;54.294;18.598;2022-09-01T05:52:23;101447.72;;;14.71;74.21
57048;BME280;42934;54.294;18.598;2022-09-01T05:54:54;101456.38;;;14.74;74.17
57048;BME280;42934;54.294;18.598;2022-09-01T05:57:28;101455.41;;;14.77;74.32
57048;BME280;42934;54.294;18.598;2022-09-01T06:00:07;101462.19;;;14.84;74.27
57048;BME280;42934;54.294;18.598;2022-09-01T06:02:41;101455.00;;;14.88;74.21
57048;BME280;42934;54.294;18.598;2022-09-01T06:05:19;101456.66;;;14.90;74.22
57048;BME280;42934;54.294;18.598;2022-09-01T06:07:51;101445.00;;;14.96;73.94
57048;BME280;42934;54.294;18.598;2022-09-01T06:10:25;101434.13;;;15.04;73.98
57048;BME280;42934;54.294;18.598;2022-09-01T06:12:56;101440.09;;;15.09;74.00
57048;BME280;42934;54.294;18.598;2022-09-01T06:15:30;101442.53;;;15.15;73.61
57048;BME280;42934;54.294;18.598;2022-09-01T06:18:01;101440.50;;;15.21;73.36
57048;BME280;42934;54.294;18.598;2022-09-01T06:20:38;101443.75;;;15.28;73.35
57048;BME280;42934;54.294;18.598;2022-09-01T06:23:09;101447.06;;;15.33;72.96
57048;BME280;42934;54.294;18.598;2022-09-01T06:25:42;101447.69;;;15.40;72.87
57048;BME280;42934;54.294;18.598;2022-09-01T06:28:17;101454.41;;;15.49;72.75
57048;BME280;42934;54.294;18.598;2022-09-01T06:30:52;101451.56;;;15.53;72.47
57048;BME280;42934;54.294;18.598;2022-09-01T06:33:24;101445.09;;;15.60;72.13
57048;BME280;42934;54.294;18.598;2022-09-01T06:35:54;101444.75;;;15.70;72.06
57048;BME280;42934;54.294;18.598;2022-09-01T06:38:24;101444.56;;;15.74;71.81
57048;BME280;42934;54.294;18.598;2022-09-01T06:40:59;101449.47;;;15.83;71.70
57048;BME280;42934;54.294;18.598;2022-09-01T06:43:31;101449.13;;;15.91;71.38
57048;BME280;42934;54.294;18.598;2022-09-01T06:46:02;101442.72;;;15.97;71.31
57048;BME280;42934;54.294;18.598;2022-09-01T06:48:32;101448.78;;;16.00;71.26
57048;BME280;42934;54.294;18.598;2022-09-01T06:51:05;101452.91;;;16.06;70.91
57048;BME280;42934;54.294;18.598;2022-09-01T06:53:51;101459.03;;;16.08;70.61
57048;BME280;42934;54.294;18.598;2022-09-01T06:56:29;101463.28;;;16.12;70.24
57048;BME280;42934;54.294;18.598;2022-09-01T06:59:08;101464.16;;;16.12;69.63
57048;BME280;42934;54.294;18.598;2022-09-01T07:01:40;101459.63;;;16.15;69.51
57048;BME280;42934;54.294;18.598;2022-09-01T07:04:10;101469.22;;;16.17;69.72
57048;BME280;42934;54.294;18.598;2022-09-01T07:06:44;101465.53;;;16.21;69.60
57048;BME280;42934;54.294;18.598;2022-09-01T07:09:37;101460.03;;;16.26;69.07
57048;BME280;42934;54.294;18.598;2022-09-01T07:12:42;101462.41;;;16.32;68.93
57048;BME280;42934;54.294;18.598;2022-09-01T07:15:36;101465.81;;;16.35;67.83
57048;BME280;42934;54.294;18.598;2022-09-01T07:18:28;101458.44;;;16.42;67.92
57048;BME280;42934;54.294;18.598;2022-09-01T07:20:58;101460.94;;;16.45;67.71
57048;BME280;42934;54.294;18.598;2022-09-01T07:23:54;101458.16;;;16.48;67.06
57048;BME280;42934;54.294;18.598;2022-09-01T07:26:54;101469.34;;;16.55;67.37
57048;BME280;42934;54.294;18.598;2022-09-01T07:29:34;101464.84;;;16.57;66.88
57048;BME280;42934;54.294;18.598;2022-09-01T07:32:05;101464.75;;;16.58;65.78
57048;BME280;42934;54.294;18.598;2022-09-01T07:34:56;101468.16;;;16.62;66.46
57048;BME280;42934;54.294;18.598;2022-09-01T07:37:47;101469.78;;;16.65;66.34
57048;BME280;42934;54.294;18.598;2022-09-01T07:40:40;101472.38;;;16.66;66.15
57048;BME280;42934;54.294;18.598;2022-09-01T07:43:49;101474.03;;;16.69;65.74
57048;BME280;42934;54.294;18.598;2022-09-01T07:46:38;101479.13;;;16.73;65.86
57048;BME280;42934;54.294;18.598;2022-09-01T07:49:13;101475.16;;;16.84;65.94
57048;BME280;42934;54.294;18.598;2022-09-01T07:52:04;101478.53;;;16.87;64.90
57048;BME280;42934;54.294;18.598;2022-09-01T07:54:36;101487.94;;;16.94;65.14
57048;BME280;42934;54.294;18.598;2022-09-01T07:57:06;101475.16;;;17.02;65.12
57048;BME280;42934;54.294;18.598;2022-09-01T07:59:36;101478.56;;;17.06;64.62
57048;BME280;42934;54.294;18.598;2022-09-01T08:02:17;101495.25;;;17.08;63.24
57048;BME280;42934;54.294;18.598;2022-09-01T08:04:47;101489.19;;;17.06;63.31
57048;BME280;42934;54.294;18.598;2022-09-01T08:07:19;101490.88;;;17.07;62.86
57048;BME280;42934;54.294;18.598;2022-09-01T08:09:49;101495.50;;;17.03;62.60
57048;BME280;42934;54.294;18.598;2022-09-01T08:12:28;101500.66;;;17.07;63.57
57048;BME280;42934;54.294;18.598;2022-09-01T08:14:58;101495.41;;;17.05;63.33
57048;BME280;42934;54.294;18.598;2022-09-01T08:17:49;101496.91;;;17.11;63.85
57048;BME280;42934;54.294;18.598;2022-09-01T08:20:22;101496.56;;;17.18;64.09
57048;BME280;42934;54.294;18.598;2022-09-01T08:22:56;101498.63;;;17.31;63.83
57048;BME280;42934;54.294;18.598;2022-09-01T08:25:36;101497.34;;;17.39;62.48
57048;BME280;42934;54.294;18.598;2022-09-01T08:28:06;101489.00;;;17.47;62.10
57048;BME280;42934;54.294;18.598;2022-09-01T08:30:39;101492.22;;;17.54;61.74
57048;BME280;42934;54.294;18.598;2022-09-01T08:33:22;101498.66;;;17.67;61.06
57048;BME280;42934;54.294;18.598;2022-09-01T08:35:53;101498.88;;;17.81;60.32
57048;BME280;42934;54.294;18.598;2022-09-01T08:38:27;101506.38;;;17.90;59.97
57048;BME280;42934;54.294;18.598;2022-09-01T08:40:57;101492.47;;;18.03;58.65
57048;BME280;42934;54.294;18.598;2022-09-01T08:43:51;101493.75;;;18.13;56.08
57048;BME280;42934;54.294;18.598;2022-09-01T08:46:25;101485.47;;;18.19;58.01
57048;BME280;42934;54.294;18.598;2022-09-01T08:48:58;101492.25;;;18.25;58.19
57048;BME280;42934;54.294;18.598;2022-09-01T08:52:13;101494.81;;;18.26;58.07
57048;BME280;42934;54.294;18.598;2022-09-01T08:54:50;101494.06;;;18.24;58.34
57048;BME280;42934;54.294;18.598;2022-09-01T08:57:25;101492.91;;;18.30;58.42
57048;BME280;42934;54.294;18.598;2022-09-01T09:00:36;101489.34;;;18.47;58.23
57048;BME280;42934;54.294;18.598;2022-09-01T09:03:18;101491.28;;;18.60;57.93
57048;BME280;42934;54.294;18.598;2022-09-01T09:06:01;101493.38;;;18.71;57.23
57048;BME280;42934;54.294;18.598;2022-09-01T09:08:51;101490.44;;;18.77;56.92
57048;BME280;42934;54.294;18.598;2022-09-01T09:11:43;101493.94;;;18.78;56.07
57048;BME280;42934;54.294;18.598;2022-09-01T09:17:12;101491.47;;;18.91;55.72
57048;BME280;42934;54.294;18.598;2022-09-01T09:19:45;101493.03;;;18.95;55.67
57048;BME280;42934;54.294;18.598;2022-09-01T09:22:17;101489.53;;;18.94;55.74
57048;BME280;42934;54.294;18.598;2022-09-01T09:24:50;101496.56;;;18.95;56.05
57048;BME280;42934;54.294;18.598;2022-09-01T09:27:27;101488.75;;;18.92;56.35
57048;BME280;42934;54.294;18.598;2022-09-01T09:29:59;101495.94;;;18.90;57.02
57048;BME280;42934;54.294;18.598;2022-09-01T09:32:45;101507.00;;;18.82;57.59
57048;BME280;42934;54.294;18.598;2022-09-01T09:35:37;101495.19;;;18.71;58.23
57048;BME280;42934;54.294;18.598;2022-09-01T09:38:20;101503.63;;;18.61;58.66
57048;BME280;42934;54.294;18.598;2022-09-01T09:40:57;101499.81;;;18.50;59.32
57048;BME280;42934;54.294;18.598;2022-09-01T09:43:48;101509.91;;;18.43;59.85
57048;BME280;42934;54.294;18.598;2022-09-01T09:46:32;101506.78;;;18.35;60.40
57048;BME280;42934;54.294;18.598;2022-09-01T09:49:12;101506.94;;;18.32;61.09
57048;BME280;42934;54.294;18.598;2022-09-01T09:51:44;101506.25;;;18.28;61.24
57048;BME280;42934;54.294;18.598;2022-09-01T09:54:20;101497.31;;;18.29;61.52
57048;BME280;42934;54.294;18.598;2022-09-01T09:57:04;101503.13;;;18.37;61.60
57048;BME280;42934;54.294;18.598;2022-09-01T09:59:39;101505.28;;;18.47;61.32
57048;BME280;42934;54.294;18.598;2022-09-01T10:02:31;101506.72;;;18.54;59.64
57048;BME280;42934;54.294;18.598;2022-09-01T10:05:25;101507.00;;;18.65;58.43
57048;BME280;42934;54.294;18.598;2022-09-01T10:07:57;101522.81;;;18.68;58.25
57048;BME280;42934;54.294;18.598;2022-09-01T10:10:31;101524.69;;;18.66;58.29
57048;BME280;42934;54.294;18.598;2022-09-01T10:13:10;101527.72;;;18.58;58.81
57048;BME280;42934;54.294;18.598;2022-09-01T10:15:48;101520.06;;;18.52;59.52
57048;BME280;42934;54.294;18.598;2022-09-01T10:18:21;101523.91;;;18.47;60.28
57048;BME280;42934;54.294;18.598;2022-09-01T10:21:00;101534.88;;;18.41;60.55
57048;BME280;42934;54.294;18.598;2022-09-01T10:23:34;101536.28;;;18.30;61.23
57048;BME280;42934;54.294;18.598;2022-09-01T10:26:08;101536.50;;;18.26;61.47
57048;BME280;42934;54.294;18.598;2022-09-01T10:28:45;101528.16;;;18.16;61.73
57048;BME280;42934;54.294;18.598;2022-09-01T10:31:19;101529.31;;;18.10;62.21
57048;BME280;42934;54.294;18.598;2022-09-01T10:33:49;101527.91;;;18.03;62.58
57048;BME280;42934;54.294;18.598;2022-09-01T10:36:19;101517.59;;;17.97;62.70
57048;BME280;42934;54.294;18.598;2022-09-01T10:38:51;101520.47;;;17.92;63.11
57048;BME280;42934;54.294;18.598;2022-09-01T10:42:00;101510.06;;;17.88;63.38
57048;BME280;42934;54.294;18.598;2022-09-01T10:44:35;101515.50;;;17.85;63.65
57048;BME280;42934;54.294;18.598;2022-09-01T10:47:12;101525.38;;;17.83;63.94
57048;BME280;42934;54.294;18.598;2022-09-01T10:50:02;101520.22;;;17.80;63.89
57048;BME280;42934;54.294;18.598;2022-09-01T10:52:56;101519.28;;;17.81;64.38
57048;BME280;42934;54.294;18.598;2022-09-01T10:58:28;101532.63;;;17.79;64.61
57048;BME280;42934;54.294;18.598;2022-09-01T11:05:10;101526.56;;;18.81;62.69
57048;BME280;42934;54.294;18.598;2022-09-01T11:07:40;101518.31;;;19.35;60.98
57048;BME280;42934;54.294;18.598;2022-09-01T11:10:37;101524.94;;;19.44;60.48
57048;BME280;42934;54.294;18.598;2022-09-01T11:13:29;101524.84;;;19.45;60.41
57048;BME280;42934;54.294;18.598;2022-09-01T11:16:25;101522.50;;;19.23;60.42
57048;BME280;42934;54.294;18.598;2022-09-01T11:19:30;101528.16;;;19.01;60.65
57048;BME280;42934;54.294;18.598;2022-09-01T11:22:14;101519.38;;;18.99;60.69
57048;BME280;42934;54.294;18.598;2022-09-01T11:28:09;101515.66;;;19.19;59.46
57048;BME280;42934;54.294;18.598;2022-09-01T11:31:01;101509.47;;;19.35;59.41
57048;BME280;42934;54.294;18.598;2022-09-01T11:33:45;101506.72;;;19.52;58.84
57048;BME280;42934;54.294;18.598;2022-09-01T11:36:25;101515.03;;;19.62;58.40
57048;BME280;42934;54.294;18.598;2022-09-01T11:39:21;101511.03;;;19.70;57.98
57048;BME280;42934;54.294;18.598;2022-09-01T11:42:00;101515.75;;;19.81;57.34
57048;BME280;42934;54.294;18.598;2022-09-01T11:44:39;101512.53;;;19.90;55.67
57048;BME280;42934;54.294;18.598;2022-09-01T11:47:12;101515.38;;;20.03;55.03
57048;BME280;42934;54.294;18.598;2022-09-01T11:49:51;101516.47;;;20.15;54.72
57048;BME280;42934;54.294;18.598;2022-09-01T11:52:24;101528.97;;;20.29;54.41
57048;BME280;42934;54.294;18.598;2022-09-01T11:54:56;101513.09;;;20.41;54.02
57048;BME280;42934;54.294;18.598;2022-09-01T11:57:29;101519.69;;;20.50;53.31
57048;BME280;42934;54.294;18.598;2022-09-01T12:00:01;101517.59;;;20.55;52.29
57048;BME280;42934;54.294;18.598;2022-09-01T12:02:43;101513.81;;;20.59;51.28
57048;BME280;42934;54.294;18.598;2022-09-01T12:05:29;101511.63;;;20.66;51.52
57048;BME280;42934;54.294;18.598;2022-09-01T12:08:01;101513.06;;;20.72;50.97
57048;BME280;42934;54.294;18.598;2022-09-01T12:10:35;101516.31;;;20.77;51.41
57048;BME280;42934;54.294;18.598;2022-09-01T12:13:07;101518.78;;;20.80;52.02
57048;BME280;42934;54.294;18.598;2022-09-01T12:15:40;101516.97;;;20.80;52.66
57048;BME280;42934;54.294;18.598;2022-09-01T12:18:33;101508.50;;;20.74;52.80
57048;BME280;42934;54.294;18.598;2022-09-01T12:21:06;101517.34;;;20.74;53.24
57048;BME280;42934;54.294;18.598;2022-09-01T12:23:38;101515.91;;;20.69;53.67
57048;BME280;42934;54.294;18.598;2022-09-01T12:26:13;101516.38;;;20.61;53.93
57048;BME280;42934;54.294;18.598;2022-09-01T12:28:51;101520.00;;;20.60;54.01
57048;BME280;42934;54.294;18.598;2022-09-01T12:31:23;101522.69;;;20.60;54.27
57048;BME280;42934;54.294;18.598;2022-09-01T12:33:54;101522.75;;;20.58;54.41
57048;BME280;42934;54.294;18.598;2022-09-01T12:36:25;101531.66;;;20.59;54.54
57048;BME280;42934;54.294;18.598;2022-09-01T12:38:59;101529.25;;;20.54;54.01
57048;BME280;42934;54.294;18.598;2022-09-01T12:42:06;101524.69;;;20.56;53.77
57048;BME280;42934;54.294;18.598;2022-09-01T12:45:09;101529.47;;;20.50;53.54
57048;BME280;42934;54.294;18.598;2022-09-01T12:48:42;101527.66;;;20.36;52.93
57048;BME280;42934;54.294;18.598;2022-09-01T12:51:46;101520.31;;;20.39;53.06
57048;BME280;42934;54.294;18.598;2022-09-01T12:58:18;101518.19;;;20.60;52.28
57048;BME280;42934;54.294;18.598;2022-09-01T13:09:29;101521.91;;;20.72;51.13
57048;BME280;42934;54.294;18.598;2022-09-01T13:12:20;101525.06;;;20.79;50.99
57048;BME280;42934;54.294;18.598;2022-09-01T13:15:13;101522.00;;;20.85;50.73
57048;BME280;42934;54.294;18.598;2022-09-01T13:17:54;101520.13;;;20.87;50.28
57048;BME280;42934;54.294;18.598;2022-09-01T13:20:34;101516.69;;;20.85;50.15
57048;BME280;42934;54.294;18.598;2022-09-01T13:23:18;101519.66;;;20.80;50.21
57048;BME280;42934;54.294;18.598;2022-09-01T13:26:55;101515.81;;;20.70;50.33
57048;BME280;42934;54.294;18.598;2022-09-01T13:30:08;101524.38;;;20.61;50.61
57048;BME280;42934;54.294;18.598;2022-09-01T13:32:49;101523.53;;;20.60;50.29
57048;BME280;42934;54.294;18.598;2022-09-01T13:35:39;101525.44;;;20.58;50.36
57048;BME280;42934;54.294;18.598;2022-09-01T13:38:27;101518.00;;;20.63;50.61
57048;BME280;42934;54.294;18.598;2022-09-01T13:41:01;101516.00;;;20.67;50.53
57048;BME280;42934;54.294;18.598;2022-09-01T13:43:32;101522.78;;;20.73;50.14
57048;BME280;42934;54.294;18.598;2022-09-01T13:49:32;101502.78;;;20.80;49.60
57048;BME280;42934;54.294;18.598;2022-09-01T13:52:48;101517.75;;;20.82;49.94
57048;BME280;42934;54.294;18.598;2022-09-01T13:55:26;101503.31;;;20.85;49.77
57048;BME280;42934;54.294;18.598;2022-09-01T13:57:56;101514.41;;;20.93;49.41
57048;BME280;42934;54.294;18.598;2022-09-01T14:00:29;101509.91;;;20.94;48.85